Time;durP1;ratioP1;P1;durP2;ratioP2;P2;SDS_P1;SDS_P2;PMS_P1;PMS_P2;Temp;Humidity;BMP_temperature;BMP_pressure;BME280_temperature;BME280_humidity;BME280_pressure;Samples;Min_cycle;Max_cycle;Signal;HPM_P1;HPM_P2
2022/01/11 00:00:10;;;;;;;4.03;2.90;;;;;;;6.34;82.30;96530.53;5030283;28;20200;-85
2022/01/11 00:02:42;;;;;;;4.40;2.97;;;;;;;6.41;82.00;96534.53;5029776;28;20228;-83
2022/01/11 00:05:17;;;;;;;2.83;2.50;;;;;;;6.39;81.64;96540.63;5048137;28;20229;-83
2022/01/11 00:07:45;;;;;;;7.20;3.70;;;;;;;6.29;82.77;96527.28;5045811;28;20202;-82
2022/01/11 00:10:21;;;;;;;5.17;3.10;;;;;;;6.26;83.74;96553.13;5046653;28;20189;-82
2022/01/11 00:12:50;;;;;;;6.30;4.03;;;;;;;6.06;83.76;96508.47;5047466;28;20214;-82
2022/01/11 00:15:20;;;;;;;6.57;3.93;;;;;;;6.14;83.25;96542.44;5047371;28;20363;-82
2022/01/11 00:17:47;;;;;;;4.83;3.37;;;;;;;6.36;83.67;96569.88;5047729;28;20223;-82
2022/01/11 00:20:16;;;;;;;5.57;2.90;;;;;;;6.25;84.07;96550.59;5046556;28;20245;-84
2022/01/11 00:25:47;;;;;;;2.90;2.60;;;;;;;5.94;83.87;96534.59;5044970;28;20657;-82
2022/01/11 00:28:16;;;;;;;4.10;2.80;;;;;;;6.25;83.68;96581.44;5047304;28;20650;-83
2022/01/11 00:30:55;;;;;;;4.07;2.60;;;;;;;6.29;83.13;96573.56;5029500;28;20201;-84
2022/01/11 00:33:33;;;;;;;2.53;2.33;;;;;;;6.23;83.01;96563.50;5078930;28;20937;-82
2022/01/11 00:36:00;;;;;;;4.07;2.50;;;;;;;6.27;83.08;96580.50;5046406;28;20301;-83
2022/01/11 00:38:33;;;;;;;3.10;2.57;;;;;;;6.23;84.44;96588.38;5046928;28;20196;-83
2022/01/11 00:41:12;;;;;;;4.63;3.37;;;;;;;5.83;82.88;96527.25;5045756;28;20770;-81
2022/01/11 00:43:41;;;;;;;8.27;4.23;;;;;;;6.34;81.32;96584.53;5079263;28;20274;-82
2022/01/11 00:46:11;;;;;;;5.03;2.53;;;;;;;6.23;79.95;96599.50;5045347;28;20285;-82
2022/01/11 00:48:40;;;;;;;4.53;2.67;;;;;;;6.05;78.64;96574.47;5047466;28;20503;-82
2022/01/11 00:51:10;;;;;;;3.83;2.40;;;;;;;6.11;79.09;96587.09;5046491;28;20189;-82
2022/01/11 00:53:41;;;;;;;3.73;2.53;;;;;;;6.09;79.15;96586.31;5045616;28;20188;-82
2022/01/11 00:56:08;;;;;;;4.43;2.40;;;;;;;6.01;78.94;96572.03;5046331;28;20200;-81
2022/01/11 00:58:35;;;;;;;4.20;2.70;;;;;;;5.80;80.12;96527.34;5049851;28;20200;-82
2022/01/11 01:01:02;;;;;;;3.90;2.37;;;;;;;5.68;80.97;96507.25;5082870;28;20196;-82
2022/01/11 01:03:30;;;;;;;2.77;2.10;;;;;;;6.00;80.27;96555.78;5082281;28;20190;-82
2022/01/11 01:05:59;;;;;;;2.77;2.40;;;;;;;6.28;79.17;96591.63;5051303;28;20217;-82
2022/01/11 01:08:28;;;;;;;3.10;2.10;;;;;;;5.67;80.00;96534.66;5049463;28;20269;-84
2022/01/11 01:10:56;;;;;;;2.30;2.00;;;;;;;5.93;81.38;96561.19;5049519;28;20223;-82
2022/01/11 01:13:28;;;;;;;3.53;2.57;;;;;;;5.86;82.32;96558.00;5032509;28;20888;-83
2022/01/11 01:16:04;;;;;;;2.97;2.30;;;;;;;6.05;82.21;96584.72;5049000;28;20202;-83
2022/01/11 01:18:42;;;;;;;2.90;2.17;;;;;;;5.92;80.58;96557.78;5066221;28;20207;-83
2022/01/11 01:21:09;;;;;;;3.07;2.63;;;;;;;5.90;78.47;96556.16;5048848;28;20748;-82
2022/01/11 01:23:36;;;;;;;3.23;2.40;;;;;;;6.08;78.55;96599.22;5065750;28;20202;-83
2022/01/11 01:26:04;;;;;;;2.17;1.53;;;;;;;5.86;76.12;96578.56;5049090;28;20310;-86
2022/01/11 01:28:31;;;;;;;1.67;1.57;;;;;;;5.72;78.32;96603.84;5051805;28;20194;-86
2022/01/11 01:31:01;;;;;;;1.80;1.47;;;;;;;5.43;77.52;96581.72;5051223;28;20701;-90
2022/01/11 01:33:31;;;;;;;2.10;1.60;;;;;;;5.63;77.87;96604.16;5051017;28;20270;-92
2022/01/11 01:36:02;;;;;;;2.20;1.70;;;;;;;5.77;77.93;96607.94;5052635;28;20208;-93
2022/01/11 01:38:31;;;;;;;2.73;1.70;;;;;;;5.87;79.07;96611.06;5033978;28;20200;-92
2022/01/11 01:41:09;;;;;;;2.03;1.70;;;;;;;6.05;78.05;96604.44;5048901;28;20185;-83
2022/01/11 01:43:36;;;;;;;3.03;1.83;;;;;;;5.89;78.89;96609.28;5048469;28;20227;-83
2022/01/11 01:46:04;;;;;;;3.27;2.03;;;;;;;5.87;78.16;96574.25;5050020;28;20631;-83
2022/01/11 01:48:31;;;;;;;2.17;1.83;;;;;;;5.96;76.21;96595.31;5050401;28;20197;-83
2022/01/11 01:50:58;;;;;;;1.80;1.40;;;;;;;5.82;76.57;96574.38;5048372;28;20282;-83
2022/01/11 01:53:26;;;;;;;1.87;1.67;;;;;;;6.09;77.54;96617.16;5050371;28;20194;-85
2022/01/11 01:55:55;;;;;;;2.00;1.80;;;;;;;6.00;77.98;96596.91;5031997;28;20204;-84
2022/01/11 01:58:25;;;;;;;2.80;2.03;;;;;;;6.00;77.87;96609.75;5048984;28;20900;-84
2022/01/11 02:00:55;;;;;;;1.97;1.77;;;;;;;5.82;78.47;96576.94;5032266;28;20193;-85
2022/01/11 02:03:26;;;;;;;2.30;1.73;;;;;;;5.98;77.79;96593.53;5050492;28;20213;-83
2022/01/11 02:05:55;;;;;;;1.57;1.43;;;;;;;5.77;76.66;96566.81;5049667;28;20219;-87
2022/01/11 02:08:26;;;;;;;2.37;1.67;;;;;;;5.89;76.72;96593.03;5050199;28;20184;-83
2022/01/11 02:10:59;;;;;;;1.90;1.70;;;;;;;5.98;77.60;96601.25;5032350;28;20637;-88
2022/01/11 02:13:27;;;;;;;1.73;1.63;;;;;;;6.10;76.62;96623.94;5048629;28;20207;-82
2022/01/11 02:15:55;;;;;;;1.70;1.47;;;;;;;6.15;76.52;96632.34;5065471;28;20227;-83
2022/01/11 02:18:25;;;;;;;2.33;1.83;;;;;;;6.08;76.51;96646.28;5048368;28;20197;-83
2022/01/11 02:20:59;;;;;;;1.87;1.70;;;;;;;6.01;75.95;96639.72;5031392;28;20628;-83
2022/01/11 02:23:31;;;;;;;1.87;1.53;;;;;;;5.79;77.76;96584.75;5048918;28;20188;-90
2022/01/11 02:25:59;;;;;;;2.10;1.70;;;;;;;6.07;77.01;96636.06;5048024;28;20232;-83
2022/01/11 02:28:28;;;;;;;2.93;1.73;;;;;;;6.09;75.74;96645.41;5049190;28;20209;-85
2022/01/11 02:30:58;;;;;;;1.83;1.50;;;;;;;6.06;74.88;96637.81;5049283;28;20209;-82
2022/01/11 02:33:35;;;;;;;2.10;1.90;;;;;;;6.16;76.54;96652.00;5048624;28;20630;-82
2022/01/11 02:36:25;;;;;;;1.70;1.60;;;;;;;6.12;76.86;96653.00;5050125;28;20731;-85
2022/01/11 02:38:54;;;;;;;1.73;1.50;;;;;;;5.87;76.57;96611.06;5064745;28;20664;-83
2022/01/11 02:41:24;;;;;;;1.50;1.40;;;;;;;6.17;75.73;96653.69;5065411;28;20196;-86
2022/01/11 02:43:52;;;;;;;1.60;1.50;;;;;;;6.01;75.47;96626.84;5065386;28;20196;-82
2022/01/11 02:46:21;;;;;;;1.87;1.70;;;;;;;6.18;75.73;96650.22;5047858;28;20236;-82
2022/01/11 02:48:55;;;;;;;1.87;1.63;;;;;;;6.27;75.73;96661.91;5048925;28;20194;-85
2022/01/11 02:51:25;;;;;;;1.80;1.47;;;;;;;5.94;74.48;96638.22;5047491;28;20726;-85
2022/01/11 02:53:57;;;;;;;2.83;1.80;;;;;;;6.12;74.66;96668.44;5031812;28;20192;-83
2022/01/11 02:56:25;;;;;;;1.73;1.63;;;;;;;6.00;74.90;96657.72;5047168;28;20187;-83
2022/01/11 02:58:52;;;;;;;2.03;1.83;;;;;;;6.04;75.00;96662.72;5047325;28;20189;-84
2022/01/11 03:01:20;;;;;;;3.57;1.87;;;;;;;5.87;76.00;96629.06;5046989;28;20650;-82
2022/01/11 03:03:48;;;;;;;1.80;1.70;;;;;;;6.14;76.06;96661.50;5063821;28;20210;-82
2022/01/11 03:06:16;;;;;;;1.97;1.77;;;;;;;5.88;74.69;96627.31;5048454;28;20219;-84
2022/01/11 03:08:46;;;;;;;2.07;1.87;;;;;;;6.01;74.75;96654.28;5047192;28;20193;-83
2022/01/11 03:11:19;;;;;;;2.07;1.77;;;;;;;6.02;75.78;96656.78;5047612;28;20241;-84
2022/01/11 03:13:48;;;;;;;3.37;2.13;;;;;;;5.80;75.13;96624.97;5046997;28;20561;-83
2022/01/11 03:16:17;;;;;;;2.63;2.17;;;;;;;6.10;77.32;96666.84;5029956;28;20197;-83
2022/01/11 03:18:46;;;;;;;2.00;1.80;;;;;;;6.02;77.58;96643.94;5046742;28;20260;-84
2022/01/11 03:21:15;;;;;;;4.00;2.50;;;;;;;5.76;76.66;96619.13;5046023;28;20220;-83
2022/01/11 03:23:43;;;;;;;2.93;1.90;;;;;;;6.11;76.95;96664.19;5047075;28;20755;-82
2022/01/11 03:26:12;;;;;;;3.20;2.37;;;;;;;6.12;77.13;96670.19;5046522;28;20224;-82
2022/01/11 03:28:41;;;;;;;3.70;2.70;;;;;;;5.85;78.48;96628.28;5047836;28;20277;-82
2022/01/11 03:31:08;;;;;;;3.63;2.90;;;;;;;6.04;77.95;96656.75;5047566;28;20227;-85
2022/01/11 03:33:46;;;;;;;3.07;2.63;;;;;;;6.06;77.66;96665.25;5046837;28;20234;-81
2022/01/11 03:36:13;;;;;;;4.47;3.00;;;;;;;6.04;76.10;96649.88;5046396;28;20220;-82
2022/01/11 03:38:41;;;;;;;3.97;2.27;;;;;;;5.92;76.20;96646.88;5029520;28;21119;-82
2022/01/11 03:41:12;;;;;;;3.77;2.83;;;;;;;5.58;76.54;96590.63;5046493;28;20573;-82
2022/01/11 03:43:41;;;;;;;3.43;3.07;;;;;;;6.08;78.25;96677.13;5045896;28;20219;-82
2022/01/11 03:46:13;;;;;;;3.00;2.60;;;;;;;6.03;76.02;96668.75;5046304;28;20716;-82
2022/01/11 03:48:40;;;;;;;2.27;1.83;;;;;;;5.81;74.82;96648.94;5046301;28;20196;-83
2022/01/11 03:51:07;;;;;;;2.07;1.83;;;;;;;5.94;73.27;96669.06;5045920;28;20262;-81
2022/01/11 03:54:03;;;;;;;1.67;1.33;;;;;;;5.87;72.26;96665.03;5029509;28;20227;-81
2022/01/11 03:56:32;;;;;;;1.97;1.53;;;;;;;5.47;72.36;96616.66;5045760;28;20660;-83
2022/01/11 03:59:08;;;;;;;2.13;1.50;;;;;;;5.78;73.10;96665.28;5030412;28;20663;-82
2022/01/11 04:01:37;;;;;;;2.23;1.60;;;;;;;5.86;73.72;96671.06;5062385;28;20270;-81
2022/01/11 04:04:06;;;;;;;3.10;2.40;;;;;;;5.86;74.35;96683.06;5047623;28;20730;-81
2022/01/11 04:06:34;;;;;;;3.73;2.57;;;;;;;5.67;73.66;96645.09;5045705;28;20703;-82
2022/01/11 04:09:05;;;;;;;4.10;2.97;;;;;;;5.93;74.02;96697.38;5045752;28;20189;-81
2022/01/11 04:11:33;;;;;;;3.83;2.90;;;;;;;5.75;73.31;96662.81;5013203;28;20306;-82
2022/01/11 04:14:00;;;;;;;2.83;1.93;;;;;;;5.84;73.10;96705.38;5045460;28;20200;-82
2022/01/11 04:16:28;;;;;;;3.67;2.30;;;;;;;5.28;75.00;96630.13;5053698;28;20200;-83
2022/01/11 04:18:58;;;;;;;3.80;2.97;;;;;;;5.65;74.71;96703.38;5049588;28;20208;-84
2022/01/11 04:21:27;;;;;;;4.93;3.17;;;;;;;5.24;73.58;96633.69;5045454;28;20331;-82
2022/01/11 04:23:56;;;;;;;3.10;2.50;;;;;;;5.68;72.46;96702.44;5045871;28;20860;-82
2022/01/11 04:26:24;;;;;;;8.30;5.23;;;;;;;5.68;72.44;96723.00;5064878;28;20225;-84
2022/01/11 04:28:52;;;;;;;6.70;5.27;;;;;;;5.58;72.19;96685.66;5066176;28;20591;-83
2022/01/11 04:31:20;;;;;;;4.53;3.23;;;;;;;5.49;74.44;96675.66;5062245;28;20234;-82
2022/01/11 04:33:49;;;;;;;3.73;2.80;;;;;;;5.74;74.73;96710.81;5047877;28;20209;-82
2022/01/11 04:36:17;;;;;;;4.20;3.10;;;;;;;5.58;74.48;96711.34;5052651;28;20188;-83
2022/01/11 04:38:44;;;;;;;3.90;3.33;;;;;;;5.70;73.78;96709.22;5065898;28;20240;-82
2022/01/11 04:41:14;;;;;;;4.73;3.07;;;;;;;5.63;75.54;96702.59;5066347;28;20633;-82
2022/01/11 04:43:45;;;;;;;6.90;4.33;;;;;;;5.86;75.24;96737.84;5066014;28;20190;-82
2022/01/11 04:46:18;;;;;;;8.60;4.20;;;;;;;5.11;75.25;96627.28;5066926;28;20706;-81
2022/01/11 04:48:49;;;;;;;7.50;4.50;;;;;;;5.72;76.51;96745.13;5067314;28;20626;-81
2022/01/11 04:51:16;;;;;;;7.33;4.80;;;;;;;5.44;76.82;96710.94;5067726;28;20184;-83
2022/01/11 04:53:43;;;;;;;7.00;4.60;;;;;;;5.66;76.57;96746.19;5065158;28;20190;-82
2022/01/11 04:56:15;;;;;;;6.73;4.30;;;;;;;5.59;76.18;96742.09;5065191;28;20220;-82
2022/01/11 04:58:42;;;;;;;7.90;4.70;;;;;;;5.39;76.86;96739.31;5065238;28;20204;-82
2022/01/11 05:01:09;;;;;;;10.07;5.13;;;;;;;5.56;76.45;96773.00;5065061;28;20196;-82
2022/01/11 05:03:40;;;;;;;9.97;5.60;;;;;;;5.43;76.71;96740.06;5065397;28;20196;-80
2022/01/11 05:06:07;;;;;;;6.23;4.20;;;;;;;5.65;76.16;96774.44;5066244;28;20187;-93
2022/01/11 05:08:36;;;;;;;7.53;4.20;;;;;;;5.64;75.87;96758.22;5064284;28;20198;-91
2022/01/11 05:11:04;;;;;;;5.43;3.77;;;;;;;5.71;76.13;96753.72;5066409;28;20268;-85
2022/01/11 05:13:31;;;;;;;5.73;3.60;;;;;;;5.64;75.53;96736.84;5065252;28;20261;-86
2022/01/11 05:16:04;;;;;;;4.90;3.63;;;;;;;5.74;75.63;96767.31;5062287;28;20670;-83
2022/01/11 05:18:37;;;;;;;6.80;4.47;;;;;;;5.81;75.92;96775.69;5050177;28;20260;-82
2022/01/11 05:21:05;;;;;;;8.13;5.53;;;;;;;5.69;75.51;96763.19;5065146;28;20227;-83
2022/01/11 05:23:34;;;;;;;4.43;3.40;;;;;;;5.10;72.10;96736.78;5064821;28;20188;-82
2022/01/11 05:26:02;;;;;;;1.43;1.33;;;;;;;4.97;69.23;96773.09;5065076;28;20594;-85
2022/01/11 05:28:30;;;;;;;2.00;1.80;;;;;;;4.73;69.41;96777.16;5065701;28;20275;-84
2022/01/11 05:30:59;;;;;;;4.03;1.87;;;;;;;4.04;71.18;96705.53;5061629;28;20269;-84
2022/01/11 05:33:26;;;;;;;1.13;1.03;;;;;;;4.17;71.22;96770.94;5063562;28;20278;-84
2022/01/11 05:35:53;;;;;;;2.07;1.53;;;;;;;4.25;71.53;96793.81;5064619;28;20177;-84
2022/01/11 05:38:21;;;;;;;5.07;3.60;;;;;;;4.15;71.60;96775.28;5066780;28;20212;-88
2022/01/11 05:40:48;;;;;;;1.60;1.50;;;;;;;3.99;72.28;96753.47;5048312;28;20288;-84
2022/01/11 05:43:16;;;;;;;2.57;1.70;;;;;;;3.96;71.29;96736.47;5065663;28;20558;-85
2022/01/11 05:45:44;;;;;;;2.03;1.40;;;;;;;4.44;70.89;96808.72;5070069;28;20190;-84
2022/01/11 05:48:11;;;;;;;1.57;1.47;;;;;;;4.17;70.66;96760.72;5051907;28;20221;-84
2022/01/11 05:50:39;;;;;;;2.03;1.43;;;;;;;4.55;69.44;96811.00;5068800;28;20194;-87
2022/01/11 05:53:10;;;;;;;1.57;1.40;;;;;;;4.58;68.83;96813.47;5068585;28;20249;-85
2022/01/11 05:55:38;;;;;;;1.93;1.67;;;;;;;4.07;69.60;96736.19;5069065;28;20587;-85
2022/01/11 05:58:05;;;;;;;1.90;1.80;;;;;;;4.45;69.98;96807.81;5070733;28;20240;-83
2022/01/11 06:00:32;;;;;;;1.50;1.40;;;;;;;4.33;69.31;96809.88;5051961;28;20750;-83
2022/01/11 06:03:00;;;;;;;1.30;1.20;;;;;;;4.45;68.73;96833.44;5069045;28;20189;-85
2022/01/11 06:05:39;;;;;;;1.87;1.67;;;;;;;3.88;68.47;96760.56;5070040;28;20212;-85
2022/01/11 06:08:16;;;;;;;1.53;1.43;;;;;;;3.68;67.78;96744.84;5070889;28;20241;-83
2022/01/11 06:10:46;;;;;;;2.63;2.10;;;;;;;4.16;68.55;96843.59;5052229;28;20198;-88
2022/01/11 06:13:15;;;;;;;3.73;2.77;;;;;;;4.10;70.06;96813.00;5053956;28;20688;-89
2022/01/11 06:15:43;;;;;;;2.33;2.00;;;;;;;3.97;68.81;96824.41;5051817;28;20684;-86
2022/01/11 06:18:13;;;;;;;1.47;1.30;;;;;;;3.60;67.76;96755.28;5068692;28;20274;-86
2022/01/11 06:21:06;;;;;;;1.70;1.60;;;;;;;4.00;68.47;96842.25;5068456;28;20218;-86
2022/01/11 06:23:35;;;;;;;1.80;1.70;;;;;;;3.85;68.29;96814.44;5067731;28;20192;-84
2022/01/11 06:26:02;;;;;;;3.27;1.67;;;;;;;3.88;69.05;96842.53;5051572;28;20185;-84
2022/01/11 06:28:30;;;;;;;1.83;1.70;;;;;;;3.85;69.24;96824.69;5067986;28;20222;-86
2022/01/11 06:30:57;;;;;;;2.47;2.20;;;;;;;4.29;69.14;96865.47;5067767;28;20261;-83
2022/01/11 06:33:25;;;;;;;3.70;2.33;;;;;;;3.87;69.63;96777.69;5068178;28;20699;-83
2022/01/11 06:35:55;;;;;;;6.90;3.53;;;;;;;4.21;69.37;96805.88;5067974;28;20194;-83
2022/01/11 06:38:23;;;;;;;6.20;4.80;;;;;;;4.54;70.60;96864.00;5070270;28;20329;-84
2022/01/11 06:40:56;;;;;;;6.77;4.13;;;;;;;4.75;69.20;96876.28;5070582;28;20212;-85
2022/01/11 06:43:25;;;;;;;9.03;5.57;;;;;;;4.39;70.31;96814.84;5055304;28;20206;-84
2022/01/11 06:45:54;;;;;;;7.73;5.40;;;;;;;4.72;69.98;96867.81;5067551;28;20217;-85
2022/01/11 06:48:23;;;;;;;5.87;4.13;;;;;;;4.58;67.95;96837.41;5067338;28;20218;-84
2022/01/11 06:50:53;;;;;;;4.60;2.47;;;;;;;4.80;66.05;96894.94;5068730;28;20196;-83
2022/01/11 06:54:10;;;;;;;2.40;2.03;;;;;;;4.63;66.37;96888.56;5067805;28;20183;-84
2022/01/11 06:57:32;;;;;;;1.97;1.87;;;;;;;4.74;66.28;96900.22;5066826;28;20298;-83
2022/01/11 07:00:53;;;;;;;5.43;3.30;;;;;;;4.95;68.12;96909.09;5052576;28;20201;-84
2022/01/11 07:04:14;;;;;;;3.77;2.80;;;;;;;5.18;68.11;96911.91;5067791;28;20678;-87
2022/01/11 07:07:39;;;;;;;5.07;3.30;;;;;;;5.28;69.06;96905.66;5067814;28;20329;-86
2022/01/11 07:11:02;;;;;;;6.37;3.57;;;;;;;5.36;68.72;96896.00;5036124;28;20681;-84
2022/01/11 07:14:23;;;;;;;7.40;4.07;;;;;;;5.22;68.46;96915.22;5067324;28;20709;-85
2022/01/11 07:17:44;;;;;;;8.40;5.63;;;;;;;4.91;69.20;96882.69;5066005;28;20199;-83
2022/01/11 07:21:05;;;;;;;8.53;5.83;;;;;;;5.06;70.34;96921.66;5066228;28;20241;-83
2022/01/11 07:24:26;;;;;;;12.07;6.27;;;;;;;5.15;70.59;96922.28;5066409;28;20190;-85
2022/01/11 07:27:49;;;;;;;8.87;4.47;;;;;;;5.14;70.08;96935.13;5067785;28;20233;-85
2022/01/11 07:31:39;;;;;;;7.77;5.47;;;;;;;5.14;70.25;96955.66;5068275;28;20212;-85
2022/01/11 07:35:03;;;;;;;7.93;3.90;;;;;;;5.02;68.32;96953.41;5067258;28;20188;-83
2022/01/11 07:38:29;;;;;;;4.60;2.70;;;;;;;5.10;66.40;96946.34;5066074;28;20209;-83
2022/01/11 07:41:56;;;;;;;5.37;1.90;;;;;;;5.02;65.62;96920.91;5051885;28;20190;-84
2022/01/11 07:45:30;;;;;;;6.13;3.13;;;;;;;5.02;65.79;96951.69;5040128;28;20196;-87
2022/01/11 07:48:59;;;;;;;8.00;5.90;;;;;;;5.05;67.52;96945.66;5036736;28;20664;-84
2022/01/11 07:52:21;;;;;;;4.40;2.10;;;;;;;4.97;64.97;96952.72;5068907;28;20194;-86
2022/01/11 07:55:43;;;;;;;4.43;1.70;;;;;;;4.94;66.92;96944.22;5066288;28;20195;-83
2022/01/11 07:59:04;;;;;;;3.33;2.47;;;;;;;5.14;67.15;96953.09;5049795;28;20194;-83
2022/01/11 08:02:26;;;;;;;5.70;2.93;;;;;;;5.17;67.39;96958.16;5055568;28;20206;-83
2022/01/11 08:05:53;;;;;;;4.13;3.10;;;;;;;5.21;67.71;96947.78;5064303;28;20193;-82
2022/01/11 08:09:15;;;;;;;4.57;3.07;;;;;;;5.28;67.02;96949.28;5076781;28;20219;-84
2022/01/11 08:12:38;;;;;;;9.50;6.50;;;;;;;5.11;68.82;96945.50;5052910;28;20219;-82
2022/01/11 08:15:59;;;;;;;10.37;6.60;;;;;;;5.12;67.34;96930.03;5067972;28;20229;-83
2022/01/11 08:19:25;;;;;;;11.53;5.80;;;;;;;5.36;67.72;96960.19;5051916;28;20275;-82
2022/01/11 08:22:51;;;;;;;9.57;6.10;;;;;;;5.21;67.87;96968.31;5071280;28;20300;-84
2022/01/11 08:26:15;;;;;;;6.53;5.23;;;;;;;5.34;67.44;96973.94;5065370;28;20225;-85
2022/01/11 08:29:37;;;;;;;6.77;4.23;;;;;;;5.28;65.20;96979.25;5064843;28;20203;-84
2022/01/11 08:33:00;;;;;;;12.30;6.87;;;;;;;5.26;66.66;96973.31;5065496;28;20195;-84
2022/01/11 08:36:21;;;;;;;9.83;6.00;;;;;;;5.17;67.42;96991.53;5065485;28;20190;-82
2022/01/11 08:39:43;;;;;;;14.47;7.37;;;;;;;5.15;67.47;96983.03;5067839;28;20206;-84
2022/01/11 08:43:05;;;;;;;14.10;8.10;;;;;;;5.20;68.40;96992.28;5047833;28;20657;-83
2022/01/11 08:46:26;;;;;;;10.50;6.93;;;;;;;5.08;67.74;96997.72;5064565;28;20182;-85
2022/01/11 08:49:54;;;;;;;11.70;5.73;;;;;;;5.08;67.99;97002.00;5048282;28;20828;-84
2022/01/11 08:53:19;;;;;;;8.57;5.63;;;;;;;5.15;68.00;96999.28;5065922;28;20195;-85
2022/01/11 08:56:45;;;;;;;10.23;5.37;;;;;;;5.22;67.12;97010.22;5048113;28;20197;-84
2022/01/11 09:00:08;;;;;;;12.80;7.00;;;;;;;4.97;69.28;96977.47;5064163;28;20244;-86
2022/01/11 09:03:39;;;;;;;15.77;7.57;;;;;;;4.97;69.28;97003.13;5048732;28;20239;-84
2022/01/11 09:07:00;;;;;;;11.47;5.23;;;;;;;4.84;70.51;96999.16;5064607;28;20274;-84
2022/01/11 09:10:21;;;;;;;10.63;6.00;;;;;;;5.01;69.13;97008.19;5064481;28;20283;-84
2022/01/11 09:13:42;;;;;;;7.37;4.90;;;;;;;4.74;66.15;96981.50;5064202;28;20186;-84
2022/01/11 09:17:04;;;;;;;5.70;3.73;;;;;;;4.75;67.41;97019.06;5064904;28;20191;-84
2022/01/11 09:20:26;;;;;;;14.90;6.13;;;;;;;4.94;66.59;97022.88;5067064;28;20227;-84
2022/01/11 09:23:47;;;;;;;5.93;3.50;;;;;;;4.78;66.96;96999.31;5068688;28;20190;-84
2022/01/11 09:27:14;;;;;;;6.80;3.80;;;;;;;4.83;65.84;97030.00;5068396;28;20187;-84
2022/01/11 09:30:35;;;;;;;18.37;4.30;;;;;;;4.92;66.21;97022.91;5050299;28;20194;-83
2022/01/11 09:33:57;;;;;;;6.00;3.90;;;;;;;4.80;65.26;97023.19;5067703;28;20519;-84
2022/01/11 09:37:18;;;;;;;4.27;3.30;;;;;;;4.98;65.17;97024.50;5067568;28;21287;-84
2022/01/11 09:40:39;;;;;;;8.83;3.43;;;;;;;4.90;65.22;97027.22;5067064;28;20600;-84
2022/01/11 09:44:02;;;;;;;7.23;3.90;;;;;;;4.86;65.13;97027.38;5067447;28;20681;-83
2022/01/11 09:47:23;;;;;;;20.10;5.20;;;;;;;4.95;64.33;97035.69;5066828;28;20190;-83
2022/01/11 09:50:44;;;;;;;21.20;5.37;;;;;;;4.94;64.48;97026.31;5067421;28;20194;-85
2022/01/11 09:54:08;;;;;;;7.03;4.10;;;;;;;4.85;64.15;97021.38;5036853;28;20411;-83
2022/01/11 09:57:30;;;;;;;3.93;3.00;;;;;;;4.65;63.19;97021.00;5051471;28;20837;-84
2022/01/11 10:01:10;;;;;;;8.50;3.40;;;;;;;4.62;63.77;97020.22;5068217;28;20190;-83
2022/01/11 10:04:51;;;;;;;6.43;3.20;;;;;;;4.77;63.76;97015.59;5068946;28;20683;-84
2022/01/11 10:08:20;;;;;;;6.93;3.80;;;;;;;4.68;63.35;97013.22;5051470;28;20267;-84
2022/01/11 10:11:53;;;;;;;7.67;4.77;;;;;;;4.78;64.34;97013.88;5066620;28;20199;-85
2022/01/11 10:15:14;;;;;;;16.63;5.93;;;;;;;4.66;64.21;97019.28;5067681;28;20182;-83
2022/01/11 10:18:56;;;;;;;7.50;3.87;;;;;;;4.24;63.96;97021.09;5067674;28;20213;-82
2022/01/11 10:22:16;;;;;;;7.63;3.57;;;;;;;4.03;62.97;97024.09;5066759;28;20309;-84
2022/01/11 10:25:37;;;;;;;13.77;5.10;;;;;;;3.67;63.71;97019.72;5050166;28;20185;-84
2022/01/11 10:29:00;;;;;;;4.60;3.20;;;;;;;3.67;63.58;97022.25;5067042;28;20234;-84
2022/01/11 10:32:21;;;;;;;5.30;3.30;;;;;;;3.50;64.14;97006.38;5066736;28;20186;-84
2022/01/11 10:35:52;;;;;;;10.57;3.90;;;;;;;3.58;64.88;97015.59;5066778;28;20193;-86
2022/01/11 10:39:22;;;;;;;4.60;3.40;;;;;;;3.46;64.71;97018.41;5037304;28;20656;-84
2022/01/11 10:42:52;;;;;;;10.23;5.63;;;;;;;3.50;64.82;97016.59;5052894;28;20232;-83
2022/01/11 10:46:13;;;;;;;11.90;4.60;;;;;;;3.45;64.97;97020.97;5066749;28;20547;-84
2022/01/11 10:49:36;;;;;;;9.13;4.00;;;;;;;3.47;64.92;96984.22;5066673;28;20224;-86
2022/01/11 10:53:04;;;;;;;11.50;4.70;;;;;;;3.96;64.75;97012.25;5065659;28;20216;-83
2022/01/11 10:56:28;;;;;;;9.10;4.40;;;;;;;4.07;63.81;97011.19;5065541;28;20185;-85
2022/01/11 10:59:50;;;;;;;16.37;7.40;;;;;;;4.01;64.65;96983.13;5051626;28;20221;-84
2022/01/11 11:03:14;;;;;;;11.77;7.03;;;;;;;4.43;63.17;97024.91;5034917;28;20198;-83
2022/01/11 11:06:45;;;;;;;13.03;4.80;;;;;;;4.33;64.27;96972.16;5069309;28;20188;-83
2022/01/11 11:10:06;;;;;;;11.63;5.70;;;;;;;4.30;63.34;96991.91;5067240;28;20189;-83
2022/01/11 11:13:32;;;;;;;13.87;5.47;;;;;;;4.60;63.83;97010.00;5065626;28;20280;-86
2022/01/11 11:17:02;;;;;;;8.43;4.53;;;;;;;4.62;64.04;97005.69;5068759;28;20182;-83
2022/01/11 11:20:35;;;;;;;10.07;5.20;;;;;;;4.19;64.50;96956.25;5068282;28;20229;-84
2022/01/11 11:23:56;;;;;;;17.07;6.17;;;;;;;4.65;63.47;97007.34;5065541;28;20212;-84
2022/01/11 11:27:19;;;;;;;15.13;5.80;;;;;;;4.76;65.10;97039.53;5065821;28;20269;-84
2022/01/11 11:30:40;;;;;;;12.73;5.83;;;;;;;4.64;64.85;97028.72;5067902;28;20267;-84
2022/01/11 11:34:01;;;;;;;12.27;5.13;;;;;;;4.23;65.40;96998.03;5068052;28;20421;-85
2022/01/11 11:37:23;;;;;;;11.33;5.70;;;;;;;4.44;66.13;97043.72;5068683;28;20207;-84
2022/01/11 11:40:43;;;;;;;10.60;5.27;;;;;;;4.54;65.82;97043.47;5069260;28;20197;-84
2022/01/11 11:44:04;;;;;;;15.03;8.60;;;;;;;4.07;65.53;96959.94;5069496;28;20722;-84
2022/01/11 11:47:25;;;;;;;9.97;6.30;;;;;;;4.56;65.62;97051.97;5068207;28;20195;-83
2022/01/11 11:50:46;;;;;;;10.63;5.87;;;;;;;4.61;65.32;97057.88;5050948;28;20277;-82
2022/01/11 11:53:51;;;;;;;13.47;6.70;;;;;;;4.69;65.01;97055.97;5068798;28;20201;-86
2022/01/11 11:57:18;;;;;;;15.90;9.00;;;;;;;4.65;66.21;97071.44;5067346;28;20948;-84
2022/01/11 12:00:46;;;;;;;9.77;6.20;;;;;;;4.06;62.26;97032.53;5066298;28;20186;-84
2022/01/11 12:04:12;;;;;;;16.30;6.13;;;;;;;4.06;64.41;97070.13;5068945;28;20252;-82
2022/01/11 12:07:38;;;;;;;9.83;5.17;;;;;;;3.32;64.65;97032.31;5050978;28;20231;-85
2022/01/11 12:11:08;;;;;;;11.03;6.10;;;;;;;2.84;66.36;97080.84;5050397;28;20188;-83
2022/01/11 12:14:47;;;;;;;11.90;7.73;;;;;;;2.79;66.97;97069.81;5048115;28;20577;-85
2022/01/11 12:18:08;;;;;;;8.10;5.03;;;;;;;3.04;66.47;97054.94;5066652;28;20195;-84
2022/01/11 12:21:33;;;;;;;7.17;5.57;;;;;;;3.12;66.88;97068.44;5067041;28;20224;-83
2022/01/11 12:24:55;;;;;;;9.67;5.60;;;;;;;3.27;66.82;97065.66;5065647;28;20189;-84
2022/01/11 12:28:21;;;;;;;5.93;4.30;;;;;;;3.02;65.05;97059.25;5064706;28;20254;-84
2022/01/11 12:31:46;;;;;;;10.03;5.53;;;;;;;3.10;66.15;97063.38;5067039;28;20181;-84
2022/01/11 12:34:46;;;;;;;8.47;5.93;;;;;;;2.97;67.80;97074.66;5049868;28;20200;-84
2022/01/11 12:38:12;;;;;;;9.77;6.40;;;;;;;3.09;67.66;97087.25;5066076;28;20216;-84
2022/01/11 12:41:33;;;;;;;4.73;3.80;;;;;;;2.79;67.98;97089.41;5067335;28;20249;-84
2022/01/11 12:48:24;;;;;;;16.97;10.60;;;;;;;2.64;69.31;97098.16;5068934;28;20223;-88
2022/01/11 12:51:51;;;;;;;8.27;5.13;;;;;;;2.70;68.89;97102.34;5070843;28;20192;-90
2022/01/11 12:54:48;;;;;;;10.47;6.43;;;;;;;2.87;69.04;97091.00;5056308;28;20200;-92
2022/01/11 12:57:26;;;;;;;10.43;7.07;;;;;;;3.04;68.26;97091.59;5072163;28;20254;-83
2022/01/11 12:59:56;;;;;;;9.97;5.70;;;;;;;3.15;67.90;97112.72;5070215;28;20252;-85
2022/01/11 13:02:27;;;;;;;21.03;9.93;;;;;;;3.22;68.20;97109.22;5069671;28;20212;-84
2022/01/11 13:04:58;;;;;;;13.07;7.03;;;;;;;3.37;66.41;97126.03;5068914;28;20691;-84
2022/01/11 13:07:35;;;;;;;12.13;6.53;;;;;;;3.34;66.48;97109.91;5071472;28;20231;-83
2022/01/11 13:10:07;;;;;;;12.33;6.13;;;;;;;3.17;65.57;97095.63;5068674;28;20651;-86
2022/01/11 13:13:03;;;;;;;9.57;5.30;;;;;;;3.14;65.99;97115.31;5068400;28;20197;-84
2022/01/11 13:15:37;;;;;;;9.83;5.50;;;;;;;3.29;65.45;97138.97;5070020;28;20208;-85
2022/01/11 13:18:11;;;;;;;8.57;5.20;;;;;;;3.00;65.67;97095.06;5068517;28;20470;-85
2022/01/11 13:20:55;;;;;;;10.63;4.80;;;;;;;3.33;64.87;97131.22;5070710;28;20294;-83
2022/01/11 13:23:32;;;;;;;5.93;4.27;;;;;;;3.14;63.44;97136.63;5053062;28;20243;-84
2022/01/11 13:26:11;;;;;;;5.50;4.20;;;;;;;2.80;63.13;97143.13;5052090;28;20314;-84
2022/01/11 13:28:46;;;;;;;7.73;4.97;;;;;;;2.76;63.91;97125.28;5069037;28;20216;-83
2022/01/11 13:31:20;;;;;;;9.13;6.50;;;;;;;2.67;64.13;97116.03;5052102;28;20619;-85
2022/01/11 13:33:51;;;;;;;5.80;4.17;;;;;;;2.56;63.75;97094.84;5070681;28;20242;-83